createdAt,value
2018-07-14T00:02:16.367Z,96.40
2018-07-14T00:04:45.311Z,96.50
2018-07-14T00:12:11.224Z,97.00
2018-07-14T00:14:40.141Z,97.10
2018-07-14T00:17:09.024Z,97.10
2018-07-14T00:19:37.966Z,97.40
2018-07-14T00:22:06.948Z,97.40
2018-07-14T00:24:35.919Z,97.40
2018-07-14T00:27:04.860Z,97.50
2018-07-14T00:29:33.755Z,97.60
2018-07-14T00:32:02.799Z,97.70
2018-07-14T00:34:31.964Z,97.80
2018-07-14T00:37:00.904Z,97.80
2018-07-14T00:39:29.791Z,98.00
2018-07-14T00:41:58.792Z,97.90
2018-07-14T00:44:27.901Z,98.00
2018-07-14T00:46:56.832Z,98.10
2018-07-14T00:49:25.724Z,98.30
2018-07-14T00:51:54.650Z,98.50
2018-07-14T00:54:23.580Z,98.50
2018-07-14T00:56:52.631Z,98.70
2018-07-14T00:59:21.527Z,98.70
2018-07-14T01:01:50.689Z,98.80
2018-07-14T01:04:19.747Z,99.00
2018-07-14T01:06:48.612Z,98.90
2018-07-14T01:09:17.596Z,99.00
2018-07-14T01:11:46.541Z,99.10
2018-07-14T01:16:44.042Z,98.80
2018-07-14T01:19:12.993Z,99.20
2018-07-14T01:21:41.911Z,99.20
2018-07-14T01:24:10.945Z,99.50
2018-07-14T01:26:39.923Z,99.30
2018-07-14T01:29:08.948Z,99.20
2018-07-14T01:31:38.202Z,99.40
2018-07-14T01:34:07.059Z,99.30
2018-07-14T01:41:34.423Z,99.00
2018-07-14T01:44:03.448Z,98.70
2018-07-14T01:46:32.345Z,98.60
2018-07-14T01:49:01.255Z,99.10
2018-07-14T01:51:30.239Z,98.90
2018-07-14T01:53:59.235Z,98.80
2018-07-14T01:56:28.120Z,98.90
2018-07-14T01:58:57.068Z,99.20
2018-07-14T02:03:54.464Z,99.80
2018-07-14T02:06:23.410Z,99.60
2018-07-14T02:08:52.271Z,99.90
2018-07-14T02:11:21.155Z,99.90
2018-07-14T02:13:50.100Z,99.90
2018-07-14T02:16:18.956Z,99.90
2018-07-14T02:18:47.853Z,99.90
2018-07-14T02:21:16.765Z,99.90
2018-07-14T02:23:45.800Z,99.90
2018-07-14T02:26:14.811Z,99.90
2018-07-14T02:28:43.823Z,99.90
2018-07-14T02:31:12.898Z,99.90
2018-07-14T02:33:41.806Z,99.90
2018-07-14T02:36:10.711Z,99.90
2018-07-14T02:38:39.621Z,99.90
2018-07-14T02:41:08.517Z,99.90
2018-07-14T02:43:37.695Z,99.90
2018-07-14T02:46:06.620Z,99.90
2018-07-14T02:48:35.532Z,99.90
2018-07-14T02:51:04.420Z,99.90
2018-07-14T02:53:33.511Z,99.90
2018-07-14T02:56:02.476Z,99.90
2018-07-14T02:58:31.419Z,99.90
2018-07-14T03:01:00.329Z,99.90
2018-07-14T03:03:29.320Z,99.90
2018-07-14T03:05:58.208Z,99.90
2018-07-14T03:08:27.380Z,99.90
2018-07-14T03:10:56.821Z,99.90
2018-07-14T03:13:25.731Z,99.90
2018-07-14T03:15:54.653Z,99.90
2018-07-14T03:18:23.802Z,99.90
2018-07-14T03:20:52.735Z,99.90
2018-07-14T03:23:21.647Z,99.90
2018-07-14T03:25:50.530Z,99.90
2018-07-14T03:28:19.419Z,99.90
2018-07-14T03:30:48.360Z,99.90
2018-07-14T03:33:17.380Z,99.90
2018-07-14T03:35:46.176Z,99.90
2018-07-14T03:38:15.255Z,99.90
2018-07-14T03:40:44.169Z,99.90
2018-07-14T03:43:13.131Z,99.90
2018-07-14T03:45:42.085Z,99.90
2018-07-14T03:48:11.068Z,99.90
2018-07-14T03:50:39.931Z,99.90
2018-07-14T03:53:08.932Z,99.90
2018-07-14T03:55:37.896Z,99.90
2018-07-14T03:58:06.796Z,99.90
2018-07-14T04:00:35.735Z,99.90
2018-07-14T04:03:04.633Z,99.90
2018-07-14T04:05:33.571Z,99.90
2018-07-14T04:08:02.467Z,99.90
2018-07-14T04:10:31.567Z,99.30
2018-07-14T04:13:00.489Z,99.50
2018-07-14T04:15:29.388Z,99.30
2018-07-14T04:20:26.887Z,98.90
2018-07-14T04:22:55.841Z,99.10
2018-07-14T04:25:24.739Z,99.50
2018-07-14T04:27:53.796Z,99.10
2018-07-14T04:30:22.776Z,98.80
2018-07-14T04:32:51.646Z,98.50
2018-07-14T04:35:20.576Z,97.90
2018-07-14T04:37:49.504Z,97.90
2018-07-14T04:40:18.440Z,97.10
2018-07-14T04:42:47.500Z,96.70
2018-07-14T04:47:44.836Z,96.20
2018-07-14T04:50:13.761Z,96.00
2018-07-14T04:52:42.695Z,95.80
2018-07-14T04:55:11.625Z,95.20
2018-07-14T05:00:09.357Z,94.90
2018-07-14T05:02:38.344Z,94.40
2018-07-14T05:05:07.868Z,94.00
2018-07-14T05:07:36.843Z,93.80
2018-07-14T05:10:05.771Z,93.50
2018-07-14T05:12:34.699Z,93.00
2018-07-14T05:15:03.933Z,92.40
2018-07-14T05:17:32.852Z,92.20
2018-07-14T05:20:01.857Z,91.70
2018-07-14T05:22:31.815Z,91.30
2018-07-14T05:25:00.652Z,91.00
2018-07-14T05:27:29.636Z,90.10
2018-07-14T05:29:58.689Z,90.00
2018-07-14T05:32:27.597Z,90.00
2018-07-14T05:34:56.529Z,89.40
2018-07-14T05:37:25.480Z,87.60
2018-07-14T05:39:54.411Z,86.80
2018-07-14T05:42:23.307Z,87.20
2018-07-14T05:44:52.219Z,88.20
2018-07-14T05:47:21.404Z,89.00
2018-07-14T05:49:50.348Z,89.50
2018-07-14T05:52:19.285Z,89.60
2018-07-14T05:54:48.595Z,90.10
2018-07-14T05:57:17.541Z,89.50
2018-07-14T05:59:46.497Z,89.50
2018-07-14T06:02:15.432Z,90.00
2018-07-14T06:04:44.411Z,91.20
2018-07-14T06:07:13.334Z,92.30
2018-07-14T06:09:42.264Z,90.30
2018-07-14T06:12:11.208Z,89.80
2018-07-14T06:14:40.290Z,88.50
2018-07-14T06:17:09.463Z,90.80
2018-07-14T06:19:38.471Z,89.70
2018-07-14T06:22:07.293Z,88.00
2018-07-14T06:24:36.203Z,86.60
2018-07-14T06:27:05.231Z,85.90
2018-07-14T06:29:34.227Z,83.90
2018-07-14T06:32:03.548Z,84.10
2018-07-14T06:34:32.427Z,84.50
2018-07-14T06:37:01.320Z,85.60
2018-07-14T06:39:30.246Z,83.90
2018-07-14T06:41:59.228Z,85.00
2018-07-14T06:44:28.220Z,86.10
2018-07-14T06:46:57.413Z,84.50
2018-07-14T06:49:26.363Z,85.40
2018-07-14T06:51:55.271Z,87.40
2018-07-14T06:54:24.205Z,86.20
2018-07-14T06:56:53.135Z,87.60
2018-07-14T07:01:50.504Z,90.00
2018-07-14T07:04:19.407Z,88.10
2018-07-14T07:06:48.345Z,89.00
2018-07-14T07:09:17.519Z,89.00
2018-07-14T07:11:46.413Z,89.60
2018-07-14T07:14:15.337Z,89.70
2018-07-14T07:19:12.708Z,90.30
2018-07-14T07:21:41.732Z,90.10
2018-07-14T07:24:10.703Z,90.60
2018-07-14T07:26:39.595Z,90.60
2018-07-14T07:29:08.548Z,91.10
2018-07-14T07:31:37.460Z,92.20
2018-07-14T07:34:06.505Z,92.20
2018-07-14T07:36:35.372Z,92.00
2018-07-14T07:39:05.549Z,92.60
2018-07-14T07:41:34.484Z,92.70
2018-07-14T07:44:03.458Z,91.70
2018-07-14T07:46:32.529Z,91.60
2018-07-14T07:49:01.432Z,92.40
2018-07-14T07:51:30.360Z,92.30
2018-07-14T07:53:59.304Z,92.60
2018-07-14T07:56:28.222Z,92.40
2018-07-14T07:58:57.160Z,91.60
2018-07-14T08:01:26.032Z,91.90
2018-07-14T08:03:54.933Z,92.80
2018-07-14T08:06:24.072Z,92.70
2018-07-14T08:08:53.053Z,92.30
2018-07-14T08:11:22.078Z,91.90
2018-07-14T08:13:50.987Z,92.00
2018-07-14T08:16:20.207Z,91.90
2018-07-14T08:18:49.363Z,92.00
2018-07-14T08:21:18.316Z,91.50
2018-07-14T08:23:47.263Z,92.20
2018-07-14T08:26:16.357Z,91.60
2018-07-14T08:28:45.283Z,92.40
2018-07-14T08:31:14.144Z,92.30
2018-07-14T08:33:43.142Z,91.90
2018-07-14T08:36:12.051Z,92.00
2018-07-14T08:38:41.093Z,92.20
2018-07-14T08:41:10.140Z,92.80
2018-07-14T08:43:39.158Z,93.40
2018-07-14T08:46:08.508Z,93.00
2018-07-14T08:48:37.503Z,92.70
2018-07-14T08:51:06.447Z,92.60
2018-07-14T08:53:35.793Z,92.40
2018-07-14T08:56:05.318Z,92.50
2018-07-14T08:58:34.281Z,92.20
2018-07-14T09:01:03.274Z,92.00
2018-07-14T09:03:32.308Z,91.90
2018-07-14T09:06:01.400Z,92.00
2018-07-14T09:08:30.307Z,91.70
2018-07-14T09:10:59.402Z,90.90
2018-07-14T09:13:28.297Z,91.00
2018-07-14T09:20:54.179Z,91.50
2018-07-14T09:23:23.232Z,91.00
2018-07-14T09:25:52.255Z,90.70
2018-07-14T09:28:21.234Z,90.70
2018-07-14T09:33:18.718Z,90.60
2018-07-14T09:35:47.581Z,90.50
2018-07-14T09:38:16.552Z,90.50
2018-07-14T09:40:45.630Z,90.90
2018-07-14T09:43:14.762Z,90.90
2018-07-14T09:45:43.675Z,90.00
2018-07-14T09:48:12.649Z,89.90
2018-07-14T09:50:41.589Z,90.20
2018-07-14T09:53:10.544Z,90.50
2018-07-14T09:55:39.453Z,90.40
2018-07-14T09:58:08.392Z,89.80
2018-07-14T10:00:37.380Z,89.90
2018-07-14T10:03:06.318Z,89.10
2018-07-14T10:05:35.232Z,89.60
2018-07-14T10:08:04.455Z,88.10
2018-07-14T10:10:33.491Z,89.20
2018-07-14T10:13:02.451Z,88.30
2018-07-14T10:15:31.305Z,87.10
2018-07-14T10:18:00.236Z,86.10
2018-07-14T10:20:29.175Z,85.80
2018-07-14T10:22:58.112Z,86.70
2018-07-14T10:25:27.190Z,86.00
2018-07-14T10:27:56.118Z,86.00
2018-07-14T10:30:25.196Z,86.40
2018-07-14T10:35:22.642Z,85.00
2018-07-14T10:37:51.547Z,82.90
2018-07-14T10:40:20.443Z,83.80
2018-07-14T10:42:49.449Z,84.30
2018-07-14T10:45:18.419Z,84.30
2018-07-14T10:47:47.377Z,83.30
2018-07-14T10:50:17.031Z,84.10
2018-07-14T10:52:46.184Z,81.70
2018-07-14T10:55:15.255Z,81.60
2018-07-14T10:57:44.283Z,82.30
2018-07-14T11:00:13.262Z,81.10
2018-07-14T11:02:42.196Z,81.50
2018-07-14T11:05:11.121Z,81.50
2018-07-14T11:07:40.063Z,80.40
2018-07-14T11:10:09.076Z,79.70
2018-07-14T11:12:37.993Z,78.30
2018-07-14T11:15:07.028Z,78.70
2018-07-14T11:17:36.118Z,78.60
2018-07-14T11:20:05.083Z,78.30
2018-07-14T11:22:34.133Z,79.40
2018-07-14T11:25:03.105Z,77.50
2018-07-14T11:27:32.096Z,77.90
2018-07-14T11:30:01.148Z,79.50
2018-07-14T11:32:30.045Z,76.90
2018-07-14T11:34:59.023Z,75.70
2018-07-14T11:37:27.880Z,75.00
2018-07-14T11:39:56.846Z,74.60
2018-07-14T11:42:25.824Z,75.00
2018-07-14T11:44:54.716Z,74.00
2018-07-14T11:47:24.290Z,74.70
2018-07-14T11:49:53.240Z,73.50
2018-07-14T11:52:22.336Z,73.60
2018-07-14T11:54:51.482Z,73.00
2018-07-14T11:57:20.368Z,72.80
2018-07-14T11:59:49.415Z,73.40
2018-07-14T12:02:18.380Z,72.50
2018-07-14T12:04:47.342Z,70.60
2018-07-14T12:07:16.244Z,71.90
2018-07-14T12:09:45.223Z,71.80
2018-07-14T12:12:14.184Z,70.90
2018-07-14T12:14:43.181Z,70.50
2018-07-14T12:17:12.109Z,70.40
2018-07-14T12:19:41.016Z,71.00
2018-07-14T12:22:09.952Z,70.40
2018-07-14T12:24:39.048Z,69.70
2018-07-14T12:27:08.021Z,70.50
2018-07-14T12:29:36.893Z,68.70
2018-07-14T12:32:06.116Z,68.80
2018-07-14T12:34:35.077Z,69.50
2018-07-14T12:37:04.058Z,69.10
2018-07-14T12:39:33.004Z,67.10
2018-07-14T12:42:02.005Z,68.20
2018-07-14T12:44:31.027Z,68.80
2018-07-14T12:46:59.960Z,66.10
2018-07-14T12:51:57.508Z,68.10
2018-07-14T12:54:26.532Z,69.10
2018-07-14T12:56:55.444Z,68.00
2018-07-14T12:59:24.400Z,69.20
2018-07-14T13:01:53.290Z,68.90
2018-07-14T13:04:22.206Z,68.40
2018-07-14T13:06:51.072Z,68.80
2018-07-14T13:09:20.021Z,69.10
2018-07-14T13:11:48.937Z,68.90
2018-07-14T13:14:17.829Z,68.90
2018-07-14T13:16:46.950Z,66.00
2018-07-14T13:19:15.865Z,66.80
2018-07-14T13:21:44.967Z,67.60
2018-07-14T13:24:13.923Z,67.00
2018-07-14T13:26:42.872Z,66.70
2018-07-14T13:29:12.060Z,67.60
2018-07-14T13:31:40.995Z,67.50
2018-07-14T13:34:10.006Z,67.40
2018-07-14T13:36:39.044Z,66.20
2018-07-14T13:39:08.120Z,67.60
2018-07-14T13:41:36.866Z,66.70
2018-07-14T13:44:05.732Z,67.60
2018-07-14T13:46:34.651Z,67.00
2018-07-14T13:49:03.601Z,64.00
2018-07-14T13:51:33.395Z,63.50
2018-07-14T13:54:02.431Z,63.50
2018-07-14T13:56:31.434Z,63.60
2018-07-14T13:59:00.491Z,63.80
2018-07-14T14:01:29.475Z,63.80
2018-07-14T14:03:58.492Z,62.90
2018-07-14T14:06:27.461Z,63.40
2018-07-14T14:08:56.395Z,63.50
2018-07-14T14:11:25.585Z,63.90
2018-07-14T14:13:54.404Z,64.40
2018-07-14T14:16:23.368Z,65.60
2018-07-14T14:18:52.336Z,64.30
2018-07-14T14:21:21.228Z,64.50
2018-07-14T14:23:50.170Z,64.10
2018-07-14T14:26:19.163Z,64.70
2018-07-14T14:28:48.074Z,64.60
2018-07-14T14:31:17.019Z,65.20
2018-07-14T14:33:45.959Z,63.20
2018-07-14T14:36:14.977Z,61.70
2018-07-14T14:38:43.883Z,61.30
2018-07-14T14:41:12.908Z,60.20
2018-07-14T14:43:41.863Z,60.60
2018-07-14T14:46:10.794Z,61.20
2018-07-14T14:48:39.941Z,59.20
2018-07-14T14:51:09.022Z,59.00
2018-07-14T14:53:38.180Z,58.90
2018-07-14T14:56:07.256Z,58.30
2018-07-14T14:58:36.245Z,57.90
2018-07-14T15:01:05.123Z,57.70
2018-07-14T15:03:34.176Z,58.10
2018-07-14T15:06:03.215Z,57.30
2018-07-14T15:08:32.108Z,59.50
2018-07-14T15:11:01.051Z,57.60
2018-07-14T15:13:29.923Z,57.40
2018-07-14T15:15:58.827Z,57.10
2018-07-14T15:18:27.742Z,57.40
2018-07-14T15:20:56.672Z,57.10
2018-07-14T15:23:25.725Z,57.10
2018-07-14T15:25:54.725Z,56.60
2018-07-14T15:30:51.988Z,57.70
2018-07-14T15:33:21.080Z,58.20
2018-07-14T15:35:49.899Z,57.30
2018-07-14T15:38:18.846Z,58.10
2018-07-14T15:40:47.685Z,57.50
2018-07-14T15:43:16.561Z,58.30
2018-07-14T15:45:45.510Z,58.30
2018-07-14T15:48:14.429Z,58.30
2018-07-14T15:50:43.343Z,58.80
2018-07-14T15:53:12.280Z,58.70
2018-07-14T15:55:41.217Z,58.80
2018-07-14T15:58:10.104Z,59.20
2018-07-14T16:00:39.172Z,59.80
2018-07-14T16:03:08.054Z,59.50
2018-07-14T16:05:36.977Z,59.90
2018-07-14T16:08:05.835Z,59.50
2018-07-14T16:10:34.764Z,59.50
2018-07-14T16:15:38.913Z,59.50
2018-07-14T16:18:07.903Z,58.70
2018-07-14T16:20:36.856Z,58.50
2018-07-14T16:23:05.736Z,58.20
2018-07-14T16:25:35.615Z,57.80
2018-07-14T16:28:04.620Z,58.10
2018-07-14T16:30:33.712Z,58.60
2018-07-14T16:33:02.656Z,58.30
2018-07-14T16:35:31.611Z,57.30
2018-07-14T16:38:00.474Z,57.70
2018-07-14T16:40:29.585Z,58.10
2018-07-14T16:42:58.492Z,58.80
2018-07-14T16:45:27.441Z,57.40
2018-07-14T16:47:56.494Z,58.10
2018-07-14T16:50:25.545Z,57.80
2018-07-14T16:52:54.448Z,57.70
2018-07-14T16:55:23.588Z,58.40
2018-07-14T16:57:52.647Z,60.30
2018-07-14T17:02:49.988Z,57.80
2018-07-14T17:05:18.852Z,58.30
2018-07-14T17:07:47.821Z,57.80
2018-07-14T17:10:16.715Z,58.70
2018-07-14T17:12:45.600Z,57.60
2018-07-14T17:15:14.563Z,58.10
2018-07-14T17:17:43.464Z,59.20
2018-07-14T17:20:12.351Z,57.10
2018-07-14T17:22:41.320Z,57.30
2018-07-14T17:25:10.387Z,58.00
2018-07-14T17:27:39.407Z,59.50
2018-07-14T17:30:08.390Z,58.50
2018-07-14T17:32:37.292Z,59.40
2018-07-14T17:35:06.361Z,58.70
2018-07-14T17:37:35.332Z,58.90
2018-07-14T17:40:04.411Z,58.90
2018-07-14T17:42:33.491Z,59.00
2018-07-14T17:45:02.443Z,58.90
2018-07-14T17:47:31.348Z,58.90
2018-07-14T17:52:28.842Z,59.30
2018-07-14T17:54:57.951Z,59.80
2018-07-14T17:57:26.956Z,59.80
2018-07-14T17:59:55.969Z,59.10
2018-07-14T18:02:24.941Z,60.00
2018-07-14T18:04:53.925Z,59.10
2018-07-14T18:07:22.850Z,59.70
2018-07-14T18:09:51.757Z,59.90
2018-07-14T18:12:20.733Z,58.40
2018-07-14T18:14:49.700Z,58.30
2018-07-14T18:17:18.557Z,58.40
2018-07-14T18:22:16.026Z,58.70
2018-07-14T18:27:13.400Z,59.10
2018-07-14T18:29:42.361Z,59.30
2018-07-14T18:32:11.269Z,59.20
2018-07-14T18:39:37.511Z,58.90
2018-07-14T18:42:06.394Z,58.70
2018-07-14T18:44:35.289Z,58.30
2018-07-14T18:47:04.404Z,58.50
2018-07-14T18:49:33.355Z,58.10
2018-07-14T18:52:02.385Z,58.30
2018-07-14T18:54:31.335Z,58.50
2018-07-14T18:57:00.438Z,58.80
2018-07-14T18:59:29.493Z,59.10
2018-07-14T19:01:58.473Z,60.60
2018-07-14T19:04:27.505Z,60.10
2018-07-14T19:06:56.500Z,60.00
2018-07-14T19:09:25.451Z,60.40
2018-07-14T19:11:54.347Z,61.30
2018-07-14T19:14:23.335Z,61.10
2018-07-14T19:16:52.265Z,61.30
2018-07-14T19:19:21.161Z,62.40
2018-07-14T19:21:50.077Z,62.50
2018-07-14T19:24:18.993Z,62.90
2018-07-14T19:26:47.969Z,62.30
2018-07-14T19:31:45.348Z,62.60
2018-07-14T19:34:14.204Z,64.50
2018-07-14T19:36:43.150Z,63.50
2018-07-14T19:39:12.135Z,63.50
2018-07-14T19:41:41.143Z,62.70
2018-07-14T19:44:10.116Z,64.60
2018-07-14T19:46:38.983Z,65.20
2018-07-14T19:49:07.924Z,63.30
2018-07-14T19:51:36.832Z,63.80
2018-07-14T19:54:05.714Z,63.70
2018-07-14T19:56:35.540Z,64.20
2018-07-14T19:59:05.171Z,64.30
2018-07-14T20:04:03.119Z,65.00
2018-07-14T20:06:32.880Z,64.80
2018-07-14T20:09:02.016Z,65.10
2018-07-14T20:11:31.014Z,65.80
2018-07-14T20:14:00.072Z,65.90
2018-07-14T20:16:29.019Z,67.40
2018-07-14T20:18:57.969Z,65.90
2018-07-14T20:21:26.900Z,66.60
2018-07-14T20:23:55.924Z,66.20
2018-07-14T20:26:24.875Z,67.40
2018-07-14T20:28:53.783Z,67.80
2018-07-14T20:31:22.673Z,67.10
2018-07-14T20:36:20.062Z,68.10
2018-07-14T20:38:48.955Z,67.30
2018-07-14T20:41:17.956Z,67.80
2018-07-14T20:43:46.825Z,69.00
2018-07-14T20:46:15.992Z,70.10
2018-07-14T20:48:45.251Z,70.40
2018-07-14T20:51:14.228Z,68.70
2018-07-14T20:53:43.187Z,69.70
2018-07-14T20:56:12.071Z,68.80
2018-07-14T20:58:40.979Z,70.00
2018-07-14T21:01:09.925Z,69.80
2018-07-14T21:03:38.947Z,70.30
2018-07-14T21:06:07.990Z,69.80
2018-07-14T21:08:36.859Z,70.90
2018-07-14T21:11:06.156Z,71.00
2018-07-14T21:13:35.190Z,70.50
2018-07-14T21:16:04.449Z,70.50
2018-07-14T21:18:33.386Z,70.00
2018-07-14T21:21:02.683Z,72.00
2018-07-14T21:23:31.924Z,72.10
2018-07-14T21:26:01.047Z,70.90
2018-07-14T21:28:29.917Z,71.40
2018-07-14T21:33:27.626Z,72.60
2018-07-14T21:35:56.592Z,72.70
2018-07-14T21:38:26.267Z,72.70
2018-07-14T21:40:55.213Z,73.10
2018-07-14T21:43:24.123Z,73.20
2018-07-14T21:45:59.925Z,73.30
2018-07-14T21:48:29.342Z,72.70
2018-07-14T21:50:58.252Z,74.10
2018-07-14T21:53:27.253Z,73.40
2018-07-14T21:55:56.139Z,73.90
2018-07-14T21:58:25.159Z,74.50
2018-07-14T22:00:58.495Z,73.80
2018-07-14T22:03:27.434Z,73.90
2018-07-14T22:05:56.327Z,74.60
2018-07-14T22:08:25.401Z,75.20
2018-07-14T22:10:54.268Z,75.10
2018-07-14T22:13:23.152Z,76.00
2018-07-14T22:15:52.171Z,77.10
2018-07-14T22:18:21.137Z,75.00
2018-07-14T22:20:50.129Z,76.00
2018-07-14T22:23:19.149Z,75.90
2018-07-14T22:25:48.103Z,76.10
2018-07-14T22:28:17.119Z,76.10
2018-07-14T22:30:46.111Z,76.40
2018-07-14T22:33:15.055Z,76.80
2018-07-14T22:35:44.038Z,76.90
2018-07-14T22:38:13.018Z,78.10
2018-07-14T22:40:41.912Z,76.40
2018-07-14T22:43:10.960Z,77.00
2018-07-14T22:45:41.481Z,77.70
2018-07-14T22:48:10.469Z,77.30
2018-07-14T22:50:39.402Z,77.60
2018-07-14T22:53:08.397Z,77.10
2018-07-14T22:55:37.924Z,75.90
2018-07-14T22:58:07.020Z,77.70
2018-07-14T23:00:35.918Z,77.20
2018-07-14T23:03:05.085Z,78.70
2018-07-14T23:05:33.948Z,78.40
2018-07-14T23:08:02.916Z,78.70
2018-07-14T23:10:31.971Z,79.20
2018-07-14T23:13:00.905Z,79.00
2018-07-14T23:15:29.857Z,78.10
2018-07-14T23:17:58.756Z,78.80
2018-07-14T23:20:27.717Z,78.40
2018-07-14T23:22:56.624Z,79.70
2018-07-14T23:25:25.528Z,79.00
2018-07-14T23:27:54.460Z,80.10
2018-07-14T23:30:24.411Z,80.20
2018-07-14T23:35:21.885Z,79.30
2018-07-14T23:40:20.005Z,79.60
2018-07-14T23:42:50.153Z,80.40
2018-07-14T23:45:19.169Z,80.40
2018-07-14T23:47:48.101Z,81.10
2018-07-14T23:50:17.908Z,80.00
2018-07-14T23:52:47.150Z,81.30
2018-07-14T23:55:16.065Z,82.00
2018-07-14T23:57:44.964Z,80.60
